This is the latest recevied weather packets stored in our database for station/object KC5CAM-13. If no packets are shown the sender has not sent any weather packets the latest 10 day(s).
| Time | Temp. | Humidity | Pressure | Rain* | Wind** | Luminosity | Snow |
|---|---|---|---|---|---|---|---|
| 1777786145 | 15.56° C | 69% | 1020.5 hPa | 0 mm | - | 0 W/m² | - |
| 1777785843 | 16.11° C | 68% | 1020.4 hPa | 0 mm | - | 0 W/m² | - |
| 1777785539 | 16.67° C | 66% | 1020.3 hPa | 0 mm | - | 0 W/m² | - |
| 1777785235 | 16.67° C | 65% | 1020.4 hPa | 0 mm | - | 0 W/m² | - |
| 1777784932 | 16.67° C | 65% | 1020.4 hPa | 0 mm | - | 0 W/m² | - |
| 1777784628 | 16.67° C | 64% | 1020.4 hPa | 0 mm | - | 0 W/m² | - |
| 1777784326 | 17.22° C | 63% | 1020.3 hPa | 0 mm | - | 0 W/m² | - |
| 1777784023 | 17.22° C | 61% | 1020.1 hPa | 0 mm | - | 0 W/m² | - |
| 1777783720 | 17.78° C | 61% | 1020.3 hPa | 0 mm | - | 0 W/m² | - |
| 1777783417 | 17.78° C | 60% | 1020.2 hPa | 0 mm | - | 0 W/m² | - |
| 1777783114 | 17.22° C | 61% | 1020.3 hPa | 0 mm | - | 0 W/m² | - |
| 1777782811 | 16.67° C | 63% | 1020.4 hPa | 0 mm | - | 0 W/m² | - |
| 1777782507 | 16.11° C | 65% | 1020.4 hPa | 0 mm | - | 0 W/m² | - |
| 1777782204 | 16.11° C | 69% | 1020.4 hPa | 0 mm | - | 0 W/m² | - |
| 1777781900 | 15.56° C | 71% | 1020.5 hPa | 0 mm | - | 0 W/m² | - |
| 1777781597 | 15.56° C | 71% | 1020.2 hPa | 0 mm | - | 0 W/m² | - |
| 1777781295 | 15.56° C | 72% | 1020.3 hPa | 0 mm | - | 0 W/m² | - |
| 1777780992 | 15.56° C | 72% | 1020.3 hPa | 0 mm | - | 0 W/m² | - |
| 1777780689 | 15.56° C | 72% | 1020.2 hPa | 0 mm | - | 0 W/m² | - |
| 1777780386 | 15.56° C | 72% | 1020.3 hPa | 0 mm | - | 0 W/m² | - |
| 1777780083 | 16.11° C | 72% | 1020.4 hPa | 0 mm | - | 0 W/m² | - |
| 1777779780 | 16.11° C | 71% | 1020.2 hPa | 0 mm | - | 0 W/m² | - |
| 1777779478 | 16.11° C | 71% | 1020.3 hPa | 0 mm | - | 0 W/m² | - |
| 1777779175 | 16.11° C | 71% | 1020.3 hPa | 0 mm | - | 0 W/m² | - |
| 1777778873 | 16.11° C | 71% | 1020.2 hPa | 0 mm | - | 0 W/m² | - |
* Rain latest hour (hover to see other rain measurements)
** Current wind speed in m/s (hover to see current wind gust speed)